Time;durP1;ratioP1;P1;durP2;ratioP2;P2;SDS_P1;SDS_P2;PMS_P1;PMS_P2;Temp;Humidity;BMP_temperature;BMP_pressure;BME280_temperature;BME280_humidity;BME280_pressure;Samples;Min_cycle;Max_cycle;Signal;HPM_P1;HPM_P2
2022/01/20 00:01:09;;;;;;;5.23;4.73;;;4.60;99.90;;;;;;5094484;28;20965;-50
2022/01/20 00:03:38;;;;;;;5.70;4.63;;;4.60;99.90;;;;;;5094728;28;20428;-50
2022/01/20 00:09:10;;;;;;;4.43;4.03;;;4.70;99.90;;;;;;5094727;28;20435;-50
2022/01/20 00:23:29;;;;;;;4.40;4.00;;;4.60;99.90;;;;;;5094199;28;20771;-52
2022/01/20 00:26:02;;;;;;;3.90;3.60;;;4.80;99.90;;;;;;5094219;28;20448;-50
2022/01/20 00:28:41;;;;;;;3.70;3.40;;;4.80;99.90;;;;;;5094499;28;20953;-50
2022/01/20 00:31:26;;;;;;;6.67;4.40;;;4.80;99.90;;;;;;5094413;28;20470;-50
2022/01/20 00:34:08;;;;;;;3.73;3.17;;;4.90;99.90;;;;;;5094262;28;20424;-50
2022/01/20 00:39:22;;;;;;;4.67;3.97;;;4.60;99.90;;;;;;5084568;28;20454;-50
2022/01/20 00:41:49;;;;;;;3.93;3.60;;;4.60;99.90;;;;;;5094072;28;20467;-50
2022/01/20 00:44:18;;;;;;;4.53;3.47;;;4.60;99.90;;;;;;5093632;28;21021;-50
2022/01/20 00:46:46;;;;;;;3.87;3.47;;;4.60;99.90;;;;;;5093666;28;20497;-50
2022/01/20 00:49:13;;;;;;;3.40;3.10;;;4.50;99.90;;;;;;5094025;28;20504;-50
2022/01/20 00:51:41;;;;;;;4.07;3.67;;;4.60;99.90;;;;;;5093932;28;20470;-49
2022/01/20 00:54:09;;;;;;;4.10;3.70;;;4.70;99.90;;;;;;5093926;28;20471;-50
2022/01/20 00:56:36;;;;;;;4.20;3.83;;;4.50;99.90;;;;;;5093453;28;20538;-50
2022/01/20 00:59:04;;;;;;;3.93;3.63;;;4.60;99.90;;;;;;5093532;28;20529;-50
2022/01/20 01:01:32;;;;;;;4.50;4.07;;;4.60;99.90;;;;;;5093288;28;20463;-50
2022/01/20 01:04:00;;;;;;;4.07;3.37;;;4.60;99.90;;;;;;5093766;28;20447;-50
2022/01/20 01:09:11;;;;;;;3.97;3.57;;;4.50;99.90;;;;;;5093367;28;20436;-50
2022/01/20 01:11:40;;;;;;;3.03;2.67;;;4.50;99.90;;;;;;5092977;28;20556;-50
2022/01/20 01:14:07;;;;;;;2.70;2.40;;;4.40;99.90;;;;;;5093515;28;20475;-51
2022/01/20 01:19:59;;;;;;;3.40;3.07;;;4.40;99.90;;;;;;5093822;28;20798;-51
2022/01/20 01:22:23;;;;;;;3.67;3.20;;;4.30;99.90;;;;;;5093353;28;20934;-51
2022/01/20 01:24:54;;;;;;;3.50;2.80;;;4.40;99.90;;;;;;5093396;28;20424;-51
2022/01/20 01:27:24;;;;;;;3.27;3.00;;;4.40;99.90;;;;;;5093330;28;20467;-51
2022/01/20 01:30:06;;;;;;;3.20;3.00;;;4.30;99.90;;;;;;5093302;28;20444;-51
2022/01/20 01:32:47;;;;;;;3.40;3.10;;;4.30;99.90;;;;;;5092824;28;20468;-51
2022/01/20 01:35:14;;;;;;;3.43;2.90;;;4.40;99.90;;;;;;5092853;28;20423;-51
2022/01/20 01:40:37;;;;;;;3.47;2.63;;;4.50;99.90;;;;;;5079913;28;20573;-51
2022/01/20 01:43:12;;;;;;;5.47;3.00;;;4.50;99.90;;;;;;5093005;28;20478;-51
2022/01/20 01:45:41;;;;;;;3.20;2.90;;;4.50;99.90;;;;;;5092971;28;20518;-51
2022/01/20 01:48:09;;;;;;;3.80;3.03;;;4.60;99.90;;;;;;5093212;28;20482;-51
2022/01/20 01:50:36;;;;;;;3.17;2.87;;;4.50;99.90;;;;;;5093115;28;20819;-51
2022/01/20 01:53:06;;;;;;;3.80;3.17;;;4.40;99.90;;;;;;5092712;28;20501;-51
2022/01/20 01:55:35;;;;;;;2.83;2.63;;;4.60;99.90;;;;;;5093015;28;20455;-51
2022/01/20 01:58:02;;;;;;;3.43;2.93;;;4.70;99.90;;;;;;5092898;28;20456;-51
2022/01/20 02:00:30;;;;;;;2.50;2.30;;;4.80;99.90;;;;;;5092778;28;20447;-50
2022/01/20 02:02:57;;;;;;;4.10;3.10;;;4.70;99.90;;;;;;5092932;28;20461;-51
2022/01/20 02:05:26;;;;;;;2.87;2.67;;;4.60;99.90;;;;;;5092962;28;20443;-50
2022/01/20 02:19:10;;;;;;;3.20;2.90;;;4.40;99.90;;;;;;5096685;28;20476;-50
2022/01/20 02:21:47;;;;;;;3.30;2.67;;;4.30;99.90;;;;;;5097084;28;20463;-49
2022/01/20 02:24:14;;;;;;;2.97;2.67;;;4.40;99.90;;;;;;5096448;28;20573;-49
2022/01/20 02:26:41;;;;;;;2.70;2.50;;;4.30;99.90;;;;;;5096649;28;20447;-50
2022/01/20 02:29:08;;;;;;;2.77;2.57;;;4.30;99.90;;;;;;5096938;28;20524;-50
2022/01/20 02:31:36;;;;;;;2.83;2.63;;;4.30;99.90;;;;;;5096367;28;20584;-49
2022/01/20 02:34:03;;;;;;;2.70;2.50;;;4.30;99.90;;;;;;5096423;28;20447;-50
2022/01/20 02:36:31;;;;;;;2.80;2.60;;;4.30;99.90;;;;;;5096548;28;20443;-50
2022/01/20 02:45:44;;;;;;;3.40;2.20;;;4.30;99.90;;;;;;5095967;28;20409;-50
2022/01/20 02:48:12;;;;;;;2.60;2.40;;;4.50;99.90;;;;;;5096163;28;20992;-50
2022/01/20 02:50:39;;;;;;;2.20;2.10;;;4.50;99.90;;;;;;5096342;28;20498;-50
2022/01/20 02:53:07;;;;;;;2.20;2.00;;;4.50;99.90;;;;;;5096363;28;20478;-50
2022/01/20 02:55:34;;;;;;;2.20;2.10;;;4.40;99.90;;;;;;5096424;28;20449;-50
2022/01/20 02:58:01;;;;;;;4.23;2.63;;;4.40;99.90;;;;;;5095817;28;20890;-50
2022/01/20 03:00:29;;;;;;;2.57;2.37;;;4.50;99.90;;;;;;5096197;28;20439;-50
2022/01/20 03:02:58;;;;;;;4.90;2.73;;;4.40;99.90;;;;;;5095945;28;20816;-50
2022/01/20 03:05:25;;;;;;;2.60;2.40;;;4.40;99.90;;;;;;5095619;28;20453;-50
2022/01/20 03:07:52;;;;;;;2.57;2.33;;;4.50;99.90;;;;;;5095598;28;20471;-50
2022/01/20 03:10:20;;;;;;;2.77;2.33;;;4.50;99.90;;;;;;5095866;28;20464;-50
2022/01/20 03:12:47;;;;;;;2.60;2.40;;;4.60;99.90;;;;;;5095677;28;20450;-50
2022/01/20 03:15:14;;;;;;;2.77;2.57;;;4.70;99.90;;;;;;5095462;28;20432;-50
2022/01/20 03:17:41;;;;;;;2.60;2.40;;;4.50;99.90;;;;;;5095651;28;20542;-49
2022/01/20 03:20:11;;;;;;;2.50;2.30;;;4.60;99.90;;;;;;5095374;28;20446;-50
2022/01/20 03:22:39;;;;;;;2.83;2.63;;;4.80;99.90;;;;;;5095197;28;20564;-50
2022/01/20 03:25:07;;;;;;;2.57;2.37;;;4.80;99.90;;;;;;5094227;28;20855;-50
2022/01/20 03:27:34;;;;;;;2.77;2.10;;;4.80;99.90;;;;;;5095321;28;20536;-49
2022/01/20 03:30:02;;;;;;;2.33;2.13;;;4.70;99.90;;;;;;5095306;28;20461;-50
2022/01/20 03:32:29;;;;;;;2.30;2.20;;;4.70;99.90;;;;;;5095337;28;20463;-50
2022/01/20 03:34:56;;;;;;;2.47;2.27;;;4.80;99.90;;;;;;5095804;28;20452;-50
2022/01/20 03:37:25;;;;;;;2.43;2.33;;;4.80;99.90;;;;;;5095102;28;20986;-50
2022/01/20 03:39:53;;;;;;;1.90;1.80;;;4.90;99.90;;;;;;5095507;28;20851;-50
2022/01/20 03:42:20;;;;;;;1.97;1.87;;;4.80;99.90;;;;;;5095431;28;20507;-50
2022/01/20 03:44:47;;;;;;;2.13;2.00;;;4.70;99.90;;;;;;5095170;28;20862;-55
2022/01/20 03:47:15;;;;;;;2.67;2.47;;;4.80;99.90;;;;;;5094770;28;20466;-50
2022/01/20 03:49:52;;;;;;;3.00;2.70;;;4.90;99.90;;;;;;5094758;28;20958;-50
2022/01/20 03:52:20;;;;;;;2.97;2.67;;;4.90;99.90;;;;;;5094793;28;20521;-50
2022/01/20 03:54:49;;;;;;;2.60;2.40;;;4.80;99.90;;;;;;5094886;28;20487;-50
2022/01/20 03:57:16;;;;;;;2.60;2.40;;;4.80;99.90;;;;;;5094771;28;20447;-50
2022/01/20 03:59:43;;;;;;;2.17;1.97;;;4.90;99.90;;;;;;5094852;28;20542;-50
2022/01/20 04:02:11;;;;;;;2.67;2.47;;;4.90;99.90;;;;;;5094533;28;20518;-50
2022/01/20 04:04:38;;;;;;;2.53;2.33;;;4.90;99.90;;;;;;5094599;28;20479;-50
2022/01/20 04:07:06;;;;;;;2.80;2.60;;;4.90;99.90;;;;;;5094609;28;21005;-50
2022/01/20 04:09:33;;;;;;;3.47;2.73;;;5.10;99.90;;;;;;5094369;28;20574;-50
2022/01/20 04:12:02;;;;;;;2.80;2.60;;;5.00;99.90;;;;;;5094325;28;21027;-50
2022/01/20 04:14:32;;;;;;;2.77;2.57;;;4.80;99.90;;;;;;5094624;28;20819;-50
2022/01/20 04:17:04;;;;;;;3.63;2.80;;;4.80;99.90;;;;;;5094481;28;20452;-50
2022/01/20 04:19:32;;;;;;;2.80;2.60;;;4.80;99.90;;;;;;5094528;28;20491;-50
2022/01/20 04:22:00;;;;;;;2.90;2.70;;;4.60;99.90;;;;;;5094575;28;20570;-50
2022/01/20 04:24:27;;;;;;;2.53;2.33;;;4.70;99.90;;;;;;5094218;28;20934;-50
2022/01/20 04:26:55;;;;;;;2.70;2.40;;;4.70;99.90;;;;;;5094506;28;20472;-50
2022/01/20 04:29:23;;;;;;;2.30;2.20;;;4.60;99.90;;;;;;5093926;28;20475;-50
2022/01/20 04:31:51;;;;;;;3.60;3.10;;;4.60;99.90;;;;;;5094335;28;21032;-50
2022/01/20 04:34:18;;;;;;;2.33;2.13;;;4.70;99.90;;;;;;5094015;28;20479;-50
2022/01/20 04:36:48;;;;;;;3.00;2.80;;;4.70;99.90;;;;;;5093837;28;20466;-50
2022/01/20 04:39:19;;;;;;;2.30;2.20;;;4.60;99.90;;;;;;5094389;28;20470;-50
2022/01/20 04:41:46;;;;;;;2.60;2.40;;;4.70;99.90;;;;;;5094057;28;20558;-50
2022/01/20 04:44:19;;;;;;;2.27;2.17;;;4.70;99.90;;;;;;5093705;28;21052;-50
2022/01/20 04:46:54;;;;;;;2.63;2.43;;;4.60;99.90;;;;;;5094059;28;20424;-50
2022/01/20 04:57:35;;;;;;;3.97;3.10;;;4.60;99.90;;;;;;5093883;28;20545;-50
2022/01/20 05:00:04;;;;;;;2.80;2.60;;;4.40;99.90;;;;;;5093893;28;20443;-50
2022/01/20 05:02:32;;;;;;;3.97;2.60;;;4.40;99.90;;;;;;5093735;28;20485;-49
2022/01/20 05:04:59;;;;;;;3.17;2.90;;;4.40;99.90;;;;;;5093872;28;20804;-50
2022/01/20 05:07:28;;;;;;;3.60;3.30;;;;;;;;;;5093726;28;20447;-50
2022/01/20 05:09:57;;;;;;;3.80;2.47;;;4.40;99.90;;;;;;5093282;28;20495;-50
2022/01/20 05:12:30;;;;;;;3.10;2.90;;;4.40;99.90;;;;;;5093249;28;20495;-50
2022/01/20 05:14:57;;;;;;;3.20;3.00;;;4.50;99.90;;;;;;5093736;28;20501;-50
2022/01/20 05:17:28;;;;;;;3.63;2.43;;;4.40;99.90;;;;;;5093614;28;20507;-50
2022/01/20 05:19:56;;;;;;;4.37;3.00;;;4.40;99.90;;;;;;5093127;28;20446;-50
2022/01/20 05:22:23;;;;;;;3.60;3.30;;;4.40;99.90;;;;;;5093246;28;20550;-50
2022/01/20 05:24:51;;;;;;;4.37;3.13;;;4.40;99.90;;;;;;5093188;28;20968;-50
2022/01/20 05:27:18;;;;;;;2.93;2.40;;;4.30;99.90;;;;;;5093366;28;20440;-50
2022/01/20 05:29:45;;;;;;;3.53;3.23;;;4.20;99.90;;;;;;5093142;28;20985;-50
2022/01/20 05:32:12;;;;;;;3.33;3.03;;;4.20;99.90;;;;;;5093090;28;20970;-51
2022/01/20 05:34:39;;;;;;;2.83;2.63;;;4.30;99.90;;;;;;5093330;28;20773;-51
2022/01/20 05:37:07;;;;;;;3.33;2.47;;;4.30;99.90;;;;;;5093580;28;20448;-51
2022/01/20 05:39:34;;;;;;;3.40;3.10;;;4.20;99.90;;;;;;5093377;28;20451;-51
2022/01/20 05:42:02;;;;;;;4.53;3.37;;;4.30;99.90;;;;;;5093099;28;20467;-51
2022/01/20 05:44:29;;;;;;;3.63;3.30;;;4.20;99.90;;;;;;5092814;28;20443;-51
2022/01/20 05:46:56;;;;;;;3.40;3.20;;;4.20;99.90;;;;;;5092281;28;20443;-51
2022/01/20 05:49:23;;;;;;;3.20;2.90;;;4.20;99.90;;;;;;5092659;28;20561;-51
2022/01/20 05:51:52;;;;;;;3.10;2.90;;;4.40;99.90;;;;;;5092827;28;20474;-51
2022/01/20 05:54:21;;;;;;;3.97;3.03;;;4.40;99.90;;;;;;5093233;28;20451;-51
2022/01/20 05:56:48;;;;;;;3.70;3.23;;;4.40;99.90;;;;;;5093083;28;20451;-51
2022/01/20 05:59:15;;;;;;;3.70;3.40;;;4.40;99.90;;;;;;5092625;28;20447;-51
2022/01/20 06:01:46;;;;;;;3.20;2.90;;;4.40;99.90;;;;;;5092820;28;20841;-51
2022/01/20 06:04:13;;;;;;;4.40;3.47;;;4.30;99.90;;;;;;5092873;28;20977;-51
2022/01/20 06:06:40;;;;;;;3.20;2.90;;;4.20;99.90;;;;;;5092490;28;20538;-51
2022/01/20 06:09:08;;;;;;;3.37;3.07;;;4.20;99.90;;;;;;5092993;28;20489;-51
2022/01/20 06:11:37;;;;;;;3.17;2.87;;;4.30;99.90;;;;;;5092408;28;20482;-51
2022/01/20 06:14:05;;;;;;;3.33;3.03;;;4.30;99.90;;;;;;5092467;28;20449;-51
2022/01/20 06:16:32;;;;;;;2.90;2.70;;;4.20;99.90;;;;;;5092586;28;20947;-51
2022/01/20 06:19:00;;;;;;;3.50;3.20;;;4.20;99.90;;;;;;5092624;28;20443;-51
2022/01/20 06:21:27;;;;;;;3.50;3.20;;;4.20;99.90;;;;;;5092842;28;20473;-51
2022/01/20 06:23:54;;;;;;;3.40;3.10;;;4.20;99.90;;;;;;5092332;28;20542;-51
2022/01/20 06:26:22;;;;;;;4.43;4.03;;;4.10;99.90;;;;;;5092740;28;20810;-51
2022/01/20 06:28:51;;;;;;;3.47;3.17;;;4.30;99.90;;;;;;5092766;28;20479;-51
2022/01/20 06:31:18;;;;;;;6.40;3.30;;;4.30;99.90;;;;;;5092436;28;20493;-51
2022/01/20 06:33:47;;;;;;;5.03;3.43;;;4.30;99.90;;;;;;5092807;28;20453;-51
2022/01/20 06:36:14;;;;;;;3.77;3.50;;;4.30;99.90;;;;;;5092399;28;20443;-51
2022/01/20 06:38:42;;;;;;;5.70;3.40;;;4.40;99.90;;;;;;5092140;28;20498;-51
2022/01/20 06:41:09;;;;;;;7.20;3.70;;;4.40;99.90;;;;;;5092466;28;21062;-51
2022/01/20 06:43:36;;;;;;;3.13;2.70;;;4.40;99.90;;;;;;5091959;28;20447;-50
2022/01/20 06:46:05;;;;;;;4.30;3.50;;;4.50;99.90;;;;;;5091890;28;20933;-50
2022/01/20 06:48:32;;;;;;;4.40;4.00;;;4.50;99.90;;;;;;5092467;28;20486;-50
2022/01/20 06:50:59;;;;;;;3.80;3.50;;;4.30;99.90;;;;;;5091932;28;20876;-50
2022/01/20 06:53:26;;;;;;;3.50;3.23;;;4.20;99.90;;;;;;5091973;28;20451;-50
2022/01/20 06:55:53;;;;;;;3.37;3.17;;;4.10;99.90;;;;;;5092065;28;20451;-50
2022/01/20 06:58:22;;;;;;;3.50;3.03;;;4.20;99.90;;;;;;5092951;28;20465;-50
2022/01/20 07:00:50;;;;;;;4.13;3.83;;;4.30;99.90;;;;;;5095512;28;20463;-50
2022/01/20 07:03:18;;;;;;;3.83;3.53;;;4.40;99.90;;;;;;5096036;28;20444;-50
2022/01/20 07:05:45;;;;;;;3.83;3.47;;;4.40;99.90;;;;;;5095694;28;20851;-51
2022/01/20 07:08:13;;;;;;;3.63;3.03;;;4.40;99.90;;;;;;5095527;28;20830;-51
2022/01/20 07:10:40;;;;;;;7.53;3.30;;;4.30;99.90;;;;;;5095086;28;20562;-50
2022/01/20 07:13:07;;;;;;;3.63;3.33;;;4.30;99.90;;;;;;5095669;28;20637;-50
2022/01/20 07:15:34;;;;;;;5.23;3.80;;;4.20;99.90;;;;;;5095346;28;20918;-50
2022/01/20 07:18:02;;;;;;;4.87;3.43;;;4.20;99.90;;;;;;5095491;28;20531;-51
2022/01/20 07:20:31;;;;;;;3.67;3.30;;;4.30;99.90;;;;;;5095220;28;20451;-50
2022/01/20 07:22:58;;;;;;;4.60;3.60;;;4.30;99.90;;;;;;5095351;28;20510;-50
2022/01/20 07:25:25;;;;;;;3.50;3.17;;;4.30;99.90;;;;;;5095027;28;20561;-50
2022/01/20 07:27:53;;;;;;;3.47;2.93;;;4.20;99.90;;;;;;5095672;28;20443;-51
2022/01/20 07:30:20;;;;;;;7.37;3.97;;;4.20;99.90;;;;;;5094904;28;20962;-51
2022/01/20 07:32:47;;;;;;;9.50;3.27;;;4.20;99.90;;;;;;5095215;28;20871;-51
2022/01/20 07:35:15;;;;;;;8.50;3.33;;;4.20;99.90;;;;;;5095528;28;20797;-52
2022/01/20 07:37:43;;;;;;;9.90;5.67;;;4.00;99.90;;;;;;5095069;28;20887;-51
2022/01/20 07:40:12;;;;;;;8.80;6.07;;;4.00;99.90;;;;;;5095275;28;20463;-50
2022/01/20 07:42:39;;;;;;;14.57;5.43;;;4.00;99.90;;;;;;5095083;28;20469;-50
2022/01/20 07:45:07;;;;;;;3.37;3.07;;;3.90;99.90;;;;;;5094764;28;20453;-50
2022/01/20 07:47:34;;;;;;;9.30;5.60;;;3.80;99.90;;;;;;5095208;28;20796;-51
2022/01/20 07:50:01;;;;;;;4.10;3.63;;;3.70;99.90;;;;;;5094935;28;20807;-50
2022/01/20 07:52:29;;;;;;;6.50;3.97;;;3.60;99.90;;;;;;5094985;28;20510;-52
2022/01/20 07:54:57;;;;;;;4.20;3.60;;;3.70;99.90;;;;;;5094801;28;20451;-52
2022/01/20 07:57:24;;;;;;;6.43;3.00;;;3.80;99.90;;;;;;5094772;28;20772;-52
2022/01/20 07:59:51;;;;;;;4.00;2.80;;;3.90;99.90;;;;;;5094537;28;20799;-50
2022/01/20 08:02:19;;;;;;;6.00;3.43;;;3.90;99.90;;;;;;5094285;28;20558;-52
2022/01/20 08:04:46;;;;;;;3.37;3.00;;;4.00;99.90;;;;;;5094809;28;20891;-51
2022/01/20 08:07:13;;;;;;;4.70;2.93;;;4.00;99.90;;;;;;5094476;28;20498;-51
2022/01/20 08:09:40;;;;;;;6.77;3.10;;;4.10;99.90;;;;;;5093941;28;20836;-50
2022/01/20 08:12:10;;;;;;;5.90;3.40;;;4.20;99.90;;;;;;5094037;28;20551;-50
2022/01/20 08:14:37;;;;;;;4.80;3.70;;;4.10;99.90;;;;;;5094305;28;20933;-51
2022/01/20 08:17:04;;;;;;;5.03;3.30;;;4.00;99.90;;;;;;5094837;28;20443;-51
2022/01/20 08:19:32;;;;;;;6.30;3.33;;;4.20;99.90;;;;;;5094556;28;20960;-51
2022/01/20 08:21:59;;;;;;;6.37;3.30;;;4.40;99.90;;;;;;5094587;28;20578;-51
2022/01/20 08:24:26;;;;;;;6.23;5.00;;;4.40;99.90;;;;;;5093984;28;20439;-50
2022/01/20 08:26:53;;;;;;;7.73;3.30;;;4.50;99.90;;;;;;5093760;28;20440;-51
2022/01/20 08:29:21;;;;;;;5.10;3.10;;;4.50;99.90;;;;;;5094244;28;20483;-51
2022/01/20 08:31:49;;;;;;;8.90;3.10;;;4.40;99.90;;;;;;5093823;28;20469;-50
2022/01/20 08:34:16;;;;;;;5.53;3.57;;;4.50;99.90;;;;;;5093947;28;20556;-50
2022/01/20 08:36:44;;;;;;;6.57;3.60;;;4.40;99.90;;;;;;5093869;28;20966;-50
2022/01/20 08:42:07;;;;;;;3.80;3.43;;;4.20;99.90;;;;;;5110633;27;20553;-51
2022/01/20 08:44:35;;;;;;;6.00;3.53;;;4.40;99.90;;;;;;5110116;28;20454;-50
2022/01/20 08:47:03;;;;;;;3.93;3.40;;;4.40;99.90;;;;;;5110253;28;20526;-50
2022/01/20 08:49:30;;;;;;;5.10;4.60;;;4.50;99.90;;;;;;5110479;28;20476;-51
2022/01/20 08:51:59;;;;;;;3.77;3.47;;;4.50;99.90;;;;;;5110505;28;20459;-50
2022/01/20 08:54:26;;;;;;;5.90;4.03;;;4.40;99.90;;;;;;5110175;28;20451;-51
2022/01/20 08:56:53;;;;;;;14.13;3.80;;;4.50;99.90;;;;;;5110286;28;20454;-51
2022/01/20 08:59:22;;;;;;;5.47;3.73;;;4.40;99.90;;;;;;5110156;28;20992;-52
2022/01/20 09:01:49;;;;;;;5.47;3.30;;;4.30;99.90;;;;;;5109788;28;20493;-51
2022/01/20 09:04:16;;;;;;;5.53;3.27;;;4.50;99.90;;;;;;5109938;28;20507;-51
2022/01/20 09:06:44;;;;;;;9.20;4.63;;;4.50;99.90;;;;;;5110085;28;20474;-50
2022/01/20 09:09:11;;;;;;;5.50;3.43;;;4.50;99.90;;;;;;5110011;28;20455;-50
2022/01/20 09:11:50;;;;;;;5.83;4.20;;;4.50;99.90;;;;;;5109972;28;20459;-50
2022/01/20 09:17:03;;;;;;;3.43;3.10;;;4.60;99.90;;;;;;5109942;28;20406;-50
2022/01/20 09:19:31;;;;;;;3.40;3.10;;;4.80;99.90;;;;;;5109910;28;20474;-50
2022/01/20 09:21:58;;;;;;;9.13;4.20;;;4.70;99.90;;;;;;5109486;28;20985;-50
2022/01/20 09:24:26;;;;;;;9.40;3.53;;;4.80;99.90;;;;;;5109899;28;20530;-50
2022/01/20 09:26:54;;;;;;;6.77;3.10;;;4.80;99.90;;;;;;5109566;28;20456;-51
2022/01/20 09:29:21;;;;;;;12.17;4.77;;;5.00;99.90;;;;;;5109382;28;20451;-50
2022/01/20 09:31:50;;;;;;;5.43;3.30;;;5.00;99.90;;;;;;5109559;28;20763;-50
2022/01/20 09:34:19;;;;;;;6.70;3.30;;;5.00;99.90;;;;;;5109560;28;20473;-50
2022/01/20 09:36:46;;;;;;;6.90;3.60;;;5.20;99.90;;;;;;5109458;28;20527;-51
2022/01/20 09:39:14;;;;;;;5.30;3.70;;;5.30;99.90;;;;;;5109495;28;20554;-50
2022/01/20 09:41:41;;;;;;;13.67;3.60;;;5.20;99.90;;;;;;5108910;28;20485;-51
2022/01/20 09:44:08;;;;;;;8.43;4.53;;;5.10;99.90;;;;;;5108825;28;20529;-51
2022/01/20 09:46:36;;;;;;;5.27;4.13;;;5.20;99.90;;;;;;5109135;28;20932;-51
2022/01/20 09:49:03;;;;;;;6.90;3.60;;;5.10;99.90;;;;;;5109484;28;20541;-51
2022/01/20 09:51:32;;;;;;;7.43;3.97;;;5.20;99.90;;;;;;5106389;28;20467;-51
2022/01/20 09:53:59;;;;;;;11.90;3.50;;;5.20;99.90;;;;;;5095591;28;20803;-51
2022/01/20 09:56:26;;;;;;;6.37;3.80;;;5.30;99.90;;;;;;5095345;28;20520;-51
2022/01/20 09:58:53;;;;;;;5.97;3.87;;;5.20;99.90;;;;;;5095482;28;20447;-51
2022/01/20 10:01:42;;;;;;;5.77;3.50;;;5.20;99.90;;;;;;5095365;28;20562;-51
2022/01/20 10:04:20;;;;;;;7.43;3.73;;;5.30;99.90;;;;;;5095561;28;20505;-51
2022/01/20 10:06:57;;;;;;;15.83;4.07;;;5.50;99.90;;;;;;5095757;28;20428;-51
2022/01/20 10:09:29;;;;;;;4.80;4.00;;;5.60;99.90;;;;;;5095293;28;20455;-51
2022/01/20 10:11:56;;;;;;;12.30;3.77;;;5.50;99.90;;;;;;5095251;28;20474;-51
2022/01/20 10:14:23;;;;;;;4.87;2.90;;;5.50;99.90;;;;;;5095147;28;20543;-51
2022/01/20 10:16:51;;;;;;;7.27;3.47;;;5.40;99.90;;;;;;5094878;28;20808;-51
2022/01/20 10:19:26;;;;;;;5.73;3.70;;;5.20;99.90;;;;;;5094984;28;20454;-51
2022/01/20 10:21:55;;;;;;;3.50;3.17;;;5.30;99.90;;;;;;5094719;28;20544;-51
2022/01/20 10:24:26;;;;;;;7.73;3.60;;;5.30;99.90;;;;;;5094486;28;20538;-52
2022/01/20 10:26:53;;;;;;;6.57;3.70;;;5.20;99.90;;;;;;5094501;28;20443;-51
2022/01/20 10:29:21;;;;;;;6.90;3.80;;;5.30;99.90;;;;;;5094788;28;20447;-51
2022/01/20 10:31:51;;;;;;;8.97;4.30;;;5.40;99.90;;;;;;5094726;28;20613;-51
2022/01/20 10:34:22;;;;;;;10.03;3.80;;;5.30;99.90;;;;;;5094513;28;20471;-51
2022/01/20 10:36:53;;;;;;;8.00;3.20;;;5.20;99.90;;;;;;5095104;28;20434;-50
2022/01/20 10:39:28;;;;;;;8.20;3.70;;;5.30;99.90;;;;;;5095024;28;20533;-51
2022/01/20 10:42:00;;;;;;;7.90;4.00;;;5.40;99.90;;;;;;5094666;28;20482;-51
2022/01/20 10:44:28;;;;;;;6.53;3.57;;;5.40;99.90;;;;;;5094820;28;20451;-50
2022/01/20 10:46:58;;;;;;;6.03;4.13;;;5.30;99.90;;;;;;5094764;28;20969;-50
2022/01/20 10:49:32;;;;;;;10.87;5.23;;;5.40;99.90;;;;;;5094499;28;20428;-50
2022/01/20 10:52:02;;;;;;;5.17;3.10;;;5.20;99.90;;;;;;5094308;28;20844;-50
2022/01/20 10:54:42;;;;;;;6.27;3.77;;;5.30;99.90;;;;;;5094207;28;20486;-50
2022/01/20 10:57:15;;;;;;;8.70;3.67;;;5.30;99.90;;;;;;5094412;28;20447;-52
2022/01/20 10:59:50;;;;;;;12.90;4.63;;;5.40;99.90;;;;;;5094481;28;20451;-52
2022/01/20 11:02:20;;;;;;;8.03;3.63;;;5.70;99.90;;;;;;5094211;28;20483;-52
2022/01/20 11:04:48;;;;;;;7.33;3.30;;;5.60;99.90;;;;;;5093315;28;21112;-49
2022/01/20 11:07:15;;;;;;;5.63;3.47;;;5.50;99.90;;;;;;5093916;28;20434;-52
2022/01/20 11:09:47;;;;;;;9.10;3.47;;;5.60;99.90;;;;;;5094113;28;20561;-50
2022/01/20 11:12:16;;;;;;;8.27;4.10;;;5.80;99.90;;;;;;5094123;28;20876;-50
2022/01/20 11:14:46;;;;;;;5.77;3.73;;;5.80;99.90;;;;;;5093871;28;20454;-52
2022/01/20 11:17:19;;;;;;;6.23;4.07;;;5.90;99.90;;;;;;5093985;28;20427;-52
2022/01/20 11:19:47;;;;;;;5.23;3.80;;;5.80;99.90;;;;;;5094121;28;20415;-51
2022/01/20 11:22:15;;;;;;;4.20;3.80;;;5.60;99.90;;;;;;5093641;28;20471;-51
2022/01/20 11:24:44;;;;;;;4.53;3.37;;;5.60;99.90;;;;;;5094148;28;20860;-50
2022/01/20 11:27:14;;;;;;;5.43;4.80;;;5.60;99.90;;;;;;5093905;28;20463;-51
2022/01/20 11:29:45;;;;;;;6.63;3.80;;;5.70;99.90;;;;;;5093876;28;20899;-50
2022/01/20 11:32:21;;;;;;;5.40;3.20;;;5.60;99.90;;;;;;5093003;28;20467;-50
2022/01/20 11:35:00;;;;;;;6.77;3.90;;;5.30;99.90;;;;;;5093537;28;20435;-50
2022/01/20 11:37:30;;;;;;;7.07;4.33;;;5.40;99.90;;;;;;5093313;28;20776;-51
2022/01/20 11:40:19;;;;;;;4.10;3.57;;;5.60;99.90;;;;;;5093498;28;20874;-51
2022/01/20 11:42:58;;;;;;;7.03;4.10;;;5.60;99.90;;;;;;5093511;28;20463;-50
2022/01/20 11:45:33;;;;;;;8.10;4.30;;;5.70;99.90;;;;;;5093174;28;20776;-51
2022/01/20 11:48:11;;;;;;;7.07;4.10;;;5.80;99.90;;;;;;5093003;28;20428;-51
2022/01/20 11:50:39;;;;;;;10.40;3.93;;;5.90;99.90;;;;;;5092841;28;20467;-51
2022/01/20 11:53:11;;;;;;;4.40;3.10;;;6.30;99.90;;;;;;5092929;28;20934;-51
2022/01/20 11:55:46;;;;;;;7.53;3.87;;;6.20;99.90;;;;;;5092973;28;20971;-51
2022/01/20 11:58:15;;;;;;;4.10;2.90;;;6.40;99.90;;;;;;5093126;28;20431;-51
2022/01/20 12:00:42;;;;;;;6.20;4.70;;;6.50;99.90;;;;;;5092575;28;20467;-52
2022/01/20 12:03:11;;;;;;;4.73;3.43;;;6.50;99.90;;;;;;5092754;28;20490;-51
2022/01/20 12:05:39;;;;;;;4.80;3.17;;;6.50;99.90;;;;;;5093071;28;20438;-50
2022/01/20 12:08:10;;;;;;;8.63;3.20;;;6.40;99.90;;;;;;5093221;28;20454;-51
2022/01/20 12:10:38;;;;;;;4.07;2.90;;;6.70;99.90;;;;;;5093534;28;20479;-51
2022/01/20 12:13:08;;;;;;;10.83;3.40;;;6.60;99.90;;;;;;5093371;28;20467;-50
2022/01/20 12:15:47;;;;;;;7.70;3.43;;;6.90;99.90;;;;;;5092946;28;20444;-51
2022/01/20 12:18:16;;;;;;;4.00;2.80;;;6.50;99.90;;;;;;5093347;28;20431;-51
2022/01/20 12:20:43;;;;;;;5.80;3.03;;;6.30;99.90;;;;;;5093236;28;20517;-51
2022/01/20 12:23:11;;;;;;;5.33;3.80;;;6.10;99.90;;;;;;5092677;28;20486;-50
2022/01/20 12:25:39;;;;;;;4.90;3.07;;;5.80;99.90;;;;;;5092943;28;20451;-51
2022/01/20 12:28:09;;;;;;;6.00;1.93;;;5.90;99.90;;;;;;5093252;28;20482;-51
2022/01/20 12:30:40;;;;;;;2.40;2.20;;;5.30;99.90;;;;;;5092938;28;20464;-51
2022/01/20 12:33:12;;;;;;;3.77;2.33;;;5.10;99.90;;;;;;5092944;28;20423;-51
2022/01/20 12:35:42;;;;;;;2.63;2.43;;;4.90;99.90;;;;;;5092936;28;20459;-51
2022/01/20 12:38:23;;;;;;;3.03;2.43;;;4.30;99.90;;;;;;5092895;28;20447;-50
2022/01/20 12:41:01;;;;;;;3.90;2.13;;;3.90;99.90;;;;;;5092203;28;20942;-50
2022/01/20 12:43:41;;;;;;;5.10;4.13;;;3.50;99.90;;;;;;5092602;28;20430;-50
2022/01/20 12:46:09;;;;;;;5.63;2.67;;;3.30;99.90;;;;;;5092544;28;20899;-51
2022/01/20 12:48:37;;;;;;;3.10;2.70;;;3.10;99.90;;;;;;5093269;28;20475;-51
2022/01/20 12:51:07;;;;;;;5.90;2.77;;;3.10;99.90;;;;;;5092671;28;20495;-51
2022/01/20 12:53:40;;;;;;;3.93;3.53;;;3.20;99.90;;;;;;5092664;28;20451;-51
2022/01/20 12:56:10;;;;;;;5.40;2.80;;;3.30;99.90;;;;;;5092898;28;20546;-51
2022/01/20 12:58:54;;;;;;;3.50;2.90;;;3.20;99.90;;;;;;5092675;28;20977;-51
2022/01/20 13:01:22;;;;;;;2.80;2.57;;;3.20;99.90;;;;;;5092646;28;20515;-51
2022/01/20 13:03:50;;;;;;;7.00;2.30;;;3.40;99.90;;;;;;5092833;28;20447;-52
2022/01/20 13:06:24;;;;;;;4.33;2.20;;;3.20;99.90;;;;;;5092585;28;21005;-52
2022/01/20 13:08:57;;;;;;;3.17;2.63;;;3.10;99.90;;;;;;5092454;28;20481;-50
2022/01/20 13:11:31;;;;;;;2.93;2.63;;;2.90;99.90;;;;;;5092630;28;20459;-50
2022/01/20 13:14:00;;;;;;;6.90;4.30;;;2.80;99.90;;;;;;5092262;28;20911;-50
2022/01/20 13:16:28;;;;;;;5.10;2.40;;;2.90;99.90;;;;;;5092748;28;20538;-50
2022/01/20 13:18:56;;;;;;;5.13;2.40;;;2.90;99.90;;;;;;5092462;28;20448;-50
2022/01/20 13:21:35;;;;;;;9.13;3.00;;;2.80;99.90;;;;;;5092127;28;20578;-50
2022/01/20 13:24:03;;;;;;;4.70;2.83;;;2.90;99.90;;;;;;5092528;28;20436;-50
2022/01/20 13:26:30;;;;;;;3.67;3.23;;;2.90;99.90;;;;;;5092344;28;20538;-50
2022/01/20 13:29:03;;;;;;;9.60;3.30;;;2.90;99.90;;;;;;5097096;28;20852;-51
2022/01/20 13:31:31;;;;;;;5.87;2.73;;;2.90;99.90;;;;;;5096582;28;20467;-53
2022/01/20 13:34:06;;;;;;;5.33;2.73;;;2.90;99.90;;;;;;5096456;28;20452;-52
2022/01/20 13:36:42;;;;;;;5.00;2.40;;;3.00;99.90;;;;;;5096419;28;20436;-52
2022/01/20 13:39:10;;;;;;;3.50;2.70;;;3.00;99.90;;;;;;5096512;28;20454;-52
2022/01/20 13:41:40;;;;;;;6.90;3.60;;;3.10;99.90;;;;;;5095705;28;20517;-50
2022/01/20 13:47:09;;;;;;;16.23;3.70;;;3.10;99.90;;;;;;5095800;28;20415;-50
2022/01/20 13:49:47;;;;;;;5.37;2.90;;;3.30;99.90;;;;;;5095642;28;20525;-50
2022/01/20 13:52:18;;;;;;;7.80;2.63;;;3.30;99.90;;;;;;5095864;28;20455;-50
2022/01/20 13:54:48;;;;;;;5.30;2.93;;;3.10;99.90;;;;;;5095811;28;20428;-49
2022/01/20 13:57:15;;;;;;;7.43;3.03;;;3.00;99.90;;;;;;5095584;28;20436;-50
2022/01/20 13:59:53;;;;;;;3.10;2.80;;;3.00;99.90;;;;;;5095447;28;20478;-50
2022/01/20 14:02:21;;;;;;;6.70;3.27;;;3.20;99.90;;;;;;5095680;28;20483;-50
2022/01/20 14:04:49;;;;;;;2.90;2.40;;;3.20;99.90;;;;;;5095541;28;20804;-50
2022/01/20 14:07:17;;;;;;;7.43;3.20;;;3.20;99.90;;;;;;5095761;28;20451;-50
2022/01/20 14:09:44;;;;;;;5.10;2.57;;;3.40;99.90;;;;;;5095499;28;20459;-50